sensor_id;sensor_type;location;lat;lon;timestamp;P1;durP1;ratioP1;P2;durP2;ratioP2
12591;SDS011;6361;52.120;5.108;2023-02-11T00:01:42;28.35;;;4.95;;
12591;SDS011;6361;52.120;5.108;2023-02-11T00:04:07;26.52;;;4.60;;
12591;SDS011;6361;52.120;5.108;2023-02-11T00:06:33;31.13;;;4.72;;
12591;SDS011;6361;52.120;5.108;2023-02-11T00:08:59;23.65;;;4.45;;
12591;SDS011;6361;52.120;5.108;2023-02-11T00:11:26;36.45;;;4.80;;
12591;SDS011;6361;52.120;5.108;2023-02-11T00:14:00;28.52;;;4.78;;
12591;SDS011;6361;52.120;5.108;2023-02-11T00:16:28;25.48;;;4.22;;
12591;SDS011;6361;52.120;5.108;2023-02-11T00:18:54;29.95;;;4.13;;
12591;SDS011;6361;52.120;5.108;2023-02-11T00:21:21;32.58;;;4.38;;
12591;SDS011;6361;52.120;5.108;2023-02-11T00:23:48;24.42;;;4.25;;
12591;SDS011;6361;52.120;5.108;2023-02-11T00:26:20;27.20;;;4.55;;
12591;SDS011;6361;52.120;5.108;2023-02-11T00:28:50;26.00;;;4.70;;
12591;SDS011;6361;52.120;5.108;2023-02-11T00:31:16;30.77;;;5.07;;
12591;SDS011;6361;52.120;5.108;2023-02-11T00:33:43;29.85;;;4.60;;
12591;SDS011;6361;52.120;5.108;2023-02-11T00:36:10;26.55;;;4.80;;
12591;SDS011;6361;52.120;5.108;2023-02-11T00:38:39;30.38;;;4.57;;
12591;SDS011;6361;52.120;5.108;2023-02-11T00:41:04;22.40;;;4.72;;
12591;SDS011;6361;52.120;5.108;2023-02-11T00:43:30;25.38;;;4.72;;
12591;SDS011;6361;52.120;5.108;2023-02-11T00:45:55;28.88;;;4.82;;
12591;SDS011;6361;52.120;5.108;2023-02-11T00:48:20;26.17;;;4.80;;
12591;SDS011;6361;52.120;5.108;2023-02-11T00:50:46;29.33;;;4.88;;
12591;SDS011;6361;52.120;5.108;2023-02-11T00:53:11;31.00;;;5.18;;
12591;SDS011;6361;52.120;5.108;2023-02-11T00:55:36;29.60;;;5.15;;
12591;SDS011;6361;52.120;5.108;2023-02-11T00:58:02;20.98;;;4.32;;
12591;SDS011;6361;52.120;5.108;2023-02-11T01:00:27;25.55;;;5.10;;
12591;SDS011;6361;52.120;5.108;2023-02-11T01:02:53;32.58;;;5.65;;
12591;SDS011;6361;52.120;5.108;2023-02-11T01:05:19;24.58;;;4.70;;
12591;SDS011;6361;52.120;5.108;2023-02-11T01:07:45;27.90;;;4.57;;
12591;SDS011;6361;52.120;5.108;2023-02-11T01:10:10;29.13;;;5.47;;
12591;SDS011;6361;52.120;5.108;2023-02-11T01:12:36;23.55;;;4.93;;
12591;SDS011;6361;52.120;5.108;2023-02-11T01:15:02;26.05;;;4.65;;
12591;SDS011;6361;52.120;5.108;2023-02-11T01:17:28;25.67;;;5.00;;
12591;SDS011;6361;52.120;5.108;2023-02-11T01:19:53;37.88;;;5.47;;
12591;SDS011;6361;52.120;5.108;2023-02-11T01:22:18;27.40;;;5.10;;
12591;SDS011;6361;52.120;5.108;2023-02-11T01:24:44;37.40;;;5.18;;
12591;SDS011;6361;52.120;5.108;2023-02-11T01:27:09;27.40;;;4.95;;
12591;SDS011;6361;52.120;5.108;2023-02-11T01:29:37;24.27;;;5.10;;
12591;SDS011;6361;52.120;5.108;2023-02-11T01:32:02;30.85;;;4.75;;
12591;SDS011;6361;52.120;5.108;2023-02-11T01:34:28;27.33;;;4.78;;
12591;SDS011;6361;52.120;5.108;2023-02-11T01:36:57;25.52;;;5.20;;
12591;SDS011;6361;52.120;5.108;2023-02-11T01:39:23;20.75;;;4.60;;
12591;SDS011;6361;52.120;5.108;2023-02-11T01:41:49;27.98;;;5.70;;
12591;SDS011;6361;52.120;5.108;2023-02-11T01:44:25;27.90;;;5.35;;
12591;SDS011;6361;52.120;5.108;2023-02-11T01:47:03;20.77;;;4.80;;
12591;SDS011;6361;52.120;5.108;2023-02-11T01:49:31;26.95;;;5.57;;
12591;SDS011;6361;52.120;5.108;2023-02-11T01:51:59;27.67;;;5.35;;
12591;SDS011;6361;52.120;5.108;2023-02-11T01:54:35;27.33;;;5.65;;
12591;SDS011;6361;52.120;5.108;2023-02-11T01:57:23;31.08;;;5.75;;
12591;SDS011;6361;52.120;5.108;2023-02-11T02:05:28;28.50;;;5.30;;
12591;SDS011;6361;52.120;5.108;2023-02-11T02:08:01;29.30;;;5.55;;
12591;SDS011;6361;52.120;5.108;2023-02-11T02:10:48;28.25;;;5.88;;
12591;SDS011;6361;52.120;5.108;2023-02-11T02:13:17;34.40;;;5.88;;
12591;SDS011;6361;52.120;5.108;2023-02-11T02:15:46;22.05;;;4.75;;
12591;SDS011;6361;52.120;5.108;2023-02-11T02:26:45;30.38;;;5.93;;
12591;SDS011;6361;52.120;5.108;2023-02-11T02:40:15;33.50;;;6.60;;
12591;SDS011;6361;52.120;5.108;2023-02-11T02:42:44;26.52;;;5.53;;
12591;SDS011;6361;52.120;5.108;2023-02-11T02:45:10;29.38;;;6.60;;
12591;SDS011;6361;52.120;5.108;2023-02-11T02:47:36;29.48;;;5.97;;
12591;SDS011;6361;52.120;5.108;2023-02-11T02:50:02;26.42;;;6.10;;
12591;SDS011;6361;52.120;5.108;2023-02-11T02:55:23;24.77;;;5.65;;
12591;SDS011;6361;52.120;5.108;2023-02-11T03:06:54;26.52;;;6.28;;
12591;SDS011;6361;52.120;5.108;2023-02-11T03:12:06;24.98;;;6.55;;
12591;SDS011;6361;52.120;5.108;2023-02-11T03:14:32;39.17;;;6.95;;
12591;SDS011;6361;52.120;5.108;2023-02-11T03:16:58;29.60;;;6.22;;
12591;SDS011;6361;52.120;5.108;2023-02-11T03:19:26;25.98;;;6.50;;
12591;SDS011;6361;52.120;5.108;2023-02-11T03:21:53;28.73;;;7.05;;
12591;SDS011;6361;52.120;5.108;2023-02-11T03:24:20;27.98;;;6.50;;
12591;SDS011;6361;52.120;5.108;2023-02-11T03:26:50;33.70;;;6.70;;
12591;SDS011;6361;52.120;5.108;2023-02-11T03:29:27;29.13;;;7.10;;
12591;SDS011;6361;52.120;5.108;2023-02-11T03:32:01;32.40;;;7.03;;
12591;SDS011;6361;52.120;5.108;2023-02-11T03:37:01;28.52;;;7.13;;
12591;SDS011;6361;52.120;5.108;2023-02-11T03:39:32;39.45;;;8.60;;
12591;SDS011;6361;52.120;5.108;2023-02-11T03:42:03;30.42;;;8.02;;
12591;SDS011;6361;52.120;5.108;2023-02-11T03:44:32;35.33;;;8.60;;
12591;SDS011;6361;52.120;5.108;2023-02-11T03:47:00;29.80;;;8.55;;
12591;SDS011;6361;52.120;5.108;2023-02-11T03:49:27;39.47;;;9.15;;
12591;SDS011;6361;52.120;5.108;2023-02-11T03:51:53;28.25;;;9.07;;
12591;SDS011;6361;52.120;5.108;2023-02-11T03:54:20;42.28;;;11.02;;
12591;SDS011;6361;52.120;5.108;2023-02-11T03:56:52;31.80;;;9.65;;
12591;SDS011;6361;52.120;5.108;2023-02-11T03:59:19;34.92;;;10.23;;
12591;SDS011;6361;52.120;5.108;2023-02-11T04:01:45;35.50;;;11.00;;
12591;SDS011;6361;52.120;5.108;2023-02-11T04:04:10;33.85;;;11.18;;
12591;SDS011;6361;52.120;5.108;2023-02-11T04:06:36;35.13;;;10.07;;
12591;SDS011;6361;52.120;5.108;2023-02-11T04:09:01;41.20;;;11.52;;
12591;SDS011;6361;52.120;5.108;2023-02-11T04:11:26;36.63;;;11.52;;
12591;SDS011;6361;52.120;5.108;2023-02-11T04:13:52;40.60;;;11.93;;
12591;SDS011;6361;52.120;5.108;2023-02-11T04:16:17;41.70;;;11.48;;
12591;SDS011;6361;52.120;5.108;2023-02-11T04:18:43;36.25;;;11.00;;
12591;SDS011;6361;52.120;5.108;2023-02-11T04:21:08;43.45;;;13.15;;
12591;SDS011;6361;52.120;5.108;2023-02-11T04:23:33;42.03;;;12.77;;
12591;SDS011;6361;52.120;5.108;2023-02-11T04:25:59;37.33;;;11.63;;
12591;SDS011;6361;52.120;5.108;2023-02-11T04:28:24;44.00;;;11.63;;
12591;SDS011;6361;52.120;5.108;2023-02-11T04:30:53;35.50;;;12.13;;
12591;SDS011;6361;52.120;5.108;2023-02-11T04:33:19;40.15;;;12.23;;
12591;SDS011;6361;52.120;5.108;2023-02-11T04:35:44;45.00;;;11.77;;
12591;SDS011;6361;52.120;5.108;2023-02-11T04:38:09;39.00;;;12.45;;
12591;SDS011;6361;52.120;5.108;2023-02-11T04:40:35;33.35;;;11.80;;
12591;SDS011;6361;52.120;5.108;2023-02-11T04:43:00;46.22;;;12.77;;
12591;SDS011;6361;52.120;5.108;2023-02-11T04:45:25;42.55;;;13.82;;
12591;SDS011;6361;52.120;5.108;2023-02-11T04:47:51;48.63;;;13.00;;
12591;SDS011;6361;52.120;5.108;2023-02-11T04:50:16;40.95;;;12.90;;
12591;SDS011;6361;52.120;5.108;2023-02-11T04:52:41;44.28;;;12.77;;
12591;SDS011;6361;52.120;5.108;2023-02-11T04:55:07;44.50;;;13.52;;
12591;SDS011;6361;52.120;5.108;2023-02-11T04:57:32;41.65;;;13.65;;
12591;SDS011;6361;52.120;5.108;2023-02-11T04:59:58;41.17;;;12.82;;
12591;SDS011;6361;52.120;5.108;2023-02-11T05:02:23;46.88;;;13.80;;
12591;SDS011;6361;52.120;5.108;2023-02-11T05:04:48;43.05;;;13.90;;
12591;SDS011;6361;52.120;5.108;2023-02-11T05:07:14;45.13;;;14.32;;
12591;SDS011;6361;52.120;5.108;2023-02-11T05:09:39;41.17;;;13.95;;
12591;SDS011;6361;52.120;5.108;2023-02-11T05:12:04;38.58;;;13.95;;
12591;SDS011;6361;52.120;5.108;2023-02-11T05:14:30;40.55;;;13.55;;
12591;SDS011;6361;52.120;5.108;2023-02-11T05:16:56;46.20;;;15.90;;
12591;SDS011;6361;52.120;5.108;2023-02-11T05:19:21;39.25;;;14.18;;
12591;SDS011;6361;52.120;5.108;2023-02-11T05:21:47;42.53;;;14.07;;
12591;SDS011;6361;52.120;5.108;2023-02-11T05:24:12;44.72;;;13.68;;
12591;SDS011;6361;52.120;5.108;2023-02-11T05:26:37;41.85;;;13.40;;
12591;SDS011;6361;52.120;5.108;2023-02-11T05:29:03;42.40;;;14.63;;
12591;SDS011;6361;52.120;5.108;2023-02-11T05:31:28;39.30;;;14.82;;
12591;SDS011;6361;52.120;5.108;2023-02-11T05:33:53;45.10;;;14.15;;
12591;SDS011;6361;52.120;5.108;2023-02-11T05:36:19;46.20;;;14.05;;
12591;SDS011;6361;52.120;5.108;2023-02-11T05:38:44;44.42;;;14.45;;
12591;SDS011;6361;52.120;5.108;2023-02-11T05:41:10;40.90;;;14.70;;
12591;SDS011;6361;52.120;5.108;2023-02-11T05:43:35;46.42;;;15.55;;
12591;SDS011;6361;52.120;5.108;2023-02-11T05:46:01;46.83;;;15.55;;
12591;SDS011;6361;52.120;5.108;2023-02-11T05:48:27;44.83;;;15.77;;
12591;SDS011;6361;52.120;5.108;2023-02-11T05:50:53;44.17;;;16.80;;
12591;SDS011;6361;52.120;5.108;2023-02-11T05:53:18;47.58;;;15.48;;
12591;SDS011;6361;52.120;5.108;2023-02-11T05:55:43;41.20;;;15.55;;
12591;SDS011;6361;52.120;5.108;2023-02-11T05:58:09;50.88;;;15.85;;
12591;SDS011;6361;52.120;5.108;2023-02-11T06:00:34;52.65;;;16.70;;
12591;SDS011;6361;52.120;5.108;2023-02-11T06:03:00;48.60;;;15.57;;
12591;SDS011;6361;52.120;5.108;2023-02-11T06:05:25;48.67;;;16.42;;
12591;SDS011;6361;52.120;5.108;2023-02-11T06:07:50;48.17;;;17.00;;
12591;SDS011;6361;52.120;5.108;2023-02-11T06:10:16;45.83;;;16.15;;
12591;SDS011;6361;52.120;5.108;2023-02-11T06:12:41;50.03;;;16.80;;
12591;SDS011;6361;52.120;5.108;2023-02-11T06:15:07;48.38;;;17.20;;
12591;SDS011;6361;52.120;5.108;2023-02-11T06:17:32;56.60;;;16.63;;
12591;SDS011;6361;52.120;5.108;2023-02-11T06:19:58;49.78;;;17.25;;
12591;SDS011;6361;52.120;5.108;2023-02-11T06:22:25;53.25;;;16.90;;
12591;SDS011;6361;52.120;5.108;2023-02-11T06:24:50;48.42;;;17.33;;
12591;SDS011;6361;52.120;5.108;2023-02-11T06:27:15;49.47;;;17.88;;
12591;SDS011;6361;52.120;5.108;2023-02-11T06:29:42;41.50;;;17.75;;
12591;SDS011;6361;52.120;5.108;2023-02-11T06:32:07;47.55;;;16.58;;
12591;SDS011;6361;52.120;5.108;2023-02-11T06:34:33;45.72;;;17.42;;
12591;SDS011;6361;52.120;5.108;2023-02-11T06:36:58;47.40;;;17.38;;
12591;SDS011;6361;52.120;5.108;2023-02-11T06:39:23;52.00;;;19.08;;
12591;SDS011;6361;52.120;5.108;2023-02-11T06:41:49;49.28;;;17.15;;
12591;SDS011;6361;52.120;5.108;2023-02-11T06:44:14;52.95;;;18.90;;
12591;SDS011;6361;52.120;5.108;2023-02-11T06:46:39;49.90;;;18.02;;
12591;SDS011;6361;52.120;5.108;2023-02-11T06:49:05;44.15;;;17.92;;
12591;SDS011;6361;52.120;5.108;2023-02-11T06:51:30;57.90;;;20.08;;
12591;SDS011;6361;52.120;5.108;2023-02-11T06:53:55;51.17;;;18.77;;
12591;SDS011;6361;52.120;5.108;2023-02-11T06:56:22;50.42;;;19.67;;
12591;SDS011;6361;52.120;5.108;2023-02-11T06:58:51;57.05;;;19.55;;
12591;SDS011;6361;52.120;5.108;2023-02-11T07:01:18;59.20;;;19.98;;
12591;SDS011;6361;52.120;5.108;2023-02-11T07:03:44;50.63;;;20.00;;
12591;SDS011;6361;52.120;5.108;2023-02-11T07:06:11;66.18;;;20.02;;
12591;SDS011;6361;52.120;5.108;2023-02-11T07:08:39;53.47;;;20.00;;
12591;SDS011;6361;52.120;5.108;2023-02-11T07:11:13;55.70;;;22.08;;
12591;SDS011;6361;52.120;5.108;2023-02-11T07:13:43;53.97;;;21.90;;
12591;SDS011;6361;52.120;5.108;2023-02-11T07:16:09;52.65;;;21.05;;
12591;SDS011;6361;52.120;5.108;2023-02-11T07:18:37;59.20;;;21.75;;
12591;SDS011;6361;52.120;5.108;2023-02-11T07:21:03;53.30;;;20.42;;
12591;SDS011;6361;52.120;5.108;2023-02-11T07:23:32;50.45;;;20.83;;
12591;SDS011;6361;52.120;5.108;2023-02-11T07:26:01;60.33;;;22.90;;
12591;SDS011;6361;52.120;5.108;2023-02-11T07:28:34;62.13;;;22.05;;
12591;SDS011;6361;52.120;5.108;2023-02-11T07:31:14;53.10;;;21.25;;
12591;SDS011;6361;52.120;5.108;2023-02-11T07:33:43;54.63;;;22.42;;
12591;SDS011;6361;52.120;5.108;2023-02-11T07:36:10;53.53;;;22.08;;
12591;SDS011;6361;52.120;5.108;2023-02-11T07:38:36;51.05;;;22.98;;
12591;SDS011;6361;52.120;5.108;2023-02-11T07:41:03;53.92;;;23.00;;
12591;SDS011;6361;52.120;5.108;2023-02-11T07:43:32;58.90;;;22.58;;
12591;SDS011;6361;52.120;5.108;2023-02-11T07:45:58;66.40;;;24.20;;
12591;SDS011;6361;52.120;5.108;2023-02-11T07:48:24;59.00;;;24.02;;
12591;SDS011;6361;52.120;5.108;2023-02-11T07:50:49;56.10;;;23.27;;
12591;SDS011;6361;52.120;5.108;2023-02-11T07:53:15;59.72;;;25.88;;
12591;SDS011;6361;52.120;5.108;2023-02-11T07:55:41;58.33;;;24.73;;
12591;SDS011;6361;52.120;5.108;2023-02-11T07:58:07;64.40;;;23.88;;
12591;SDS011;6361;52.120;5.108;2023-02-11T08:00:32;57.45;;;23.38;;
12591;SDS011;6361;52.120;5.108;2023-02-11T08:02:58;57.55;;;24.15;;
12591;SDS011;6361;52.120;5.108;2023-02-11T08:05:23;59.53;;;25.10;;
12591;SDS011;6361;52.120;5.108;2023-02-11T08:07:52;57.78;;;23.80;;
12591;SDS011;6361;52.120;5.108;2023-02-11T08:10:18;53.78;;;24.02;;
12591;SDS011;6361;52.120;5.108;2023-02-11T08:12:44;59.92;;;24.67;;
12591;SDS011;6361;52.120;5.108;2023-02-11T08:15:09;60.13;;;24.48;;
12591;SDS011;6361;52.120;5.108;2023-02-11T08:17:35;63.17;;;24.83;;
12591;SDS011;6361;52.120;5.108;2023-02-11T08:20:01;71.13;;;24.05;;
12591;SDS011;6361;52.120;5.108;2023-02-11T08:22:26;58.70;;;23.85;;
12591;SDS011;6361;52.120;5.108;2023-02-11T08:24:52;55.95;;;24.27;;
12591;SDS011;6361;52.120;5.108;2023-02-11T08:27:17;64.32;;;24.83;;
12591;SDS011;6361;52.120;5.108;2023-02-11T08:29:42;62.72;;;24.20;;
12591;SDS011;6361;52.120;5.108;2023-02-11T08:32:08;58.30;;;24.23;;
12591;SDS011;6361;52.120;5.108;2023-02-11T08:34:33;64.70;;;23.63;;
12591;SDS011;6361;52.120;5.108;2023-02-11T08:36:58;53.35;;;22.45;;
12591;SDS011;6361;52.120;5.108;2023-02-11T08:39:24;58.83;;;24.45;;
12591;SDS011;6361;52.120;5.108;2023-02-11T08:41:50;61.17;;;24.63;;
12591;SDS011;6361;52.120;5.108;2023-02-11T08:44:18;59.03;;;25.40;;
12591;SDS011;6361;52.120;5.108;2023-02-11T08:46:44;58.50;;;24.83;;
12591;SDS011;6361;52.120;5.108;2023-02-11T08:49:10;64.65;;;25.70;;
12591;SDS011;6361;52.120;5.108;2023-02-11T08:51:35;61.17;;;25.60;;
12591;SDS011;6361;52.120;5.108;2023-02-11T08:54:01;55.40;;;25.27;;
12591;SDS011;6361;52.120;5.108;2023-02-11T08:56:26;55.08;;;24.48;;
12591;SDS011;6361;52.120;5.108;2023-02-11T08:58:52;57.58;;;26.58;;
12591;SDS011;6361;52.120;5.108;2023-02-11T09:01:19;56.67;;;24.73;;
12591;SDS011;6361;52.120;5.108;2023-02-11T09:03:49;59.42;;;24.63;;
12591;SDS011;6361;52.120;5.108;2023-02-11T09:06:14;69.40;;;25.88;;
12591;SDS011;6361;52.120;5.108;2023-02-11T09:08:43;59.95;;;25.67;;
12591;SDS011;6361;52.120;5.108;2023-02-11T09:11:10;57.22;;;26.48;;
12591;SDS011;6361;52.120;5.108;2023-02-11T09:13:35;52.58;;;23.58;;
12591;SDS011;6361;52.120;5.108;2023-02-11T09:16:02;61.00;;;25.98;;
12591;SDS011;6361;52.120;5.108;2023-02-11T09:18:28;61.40;;;25.17;;
12591;SDS011;6361;52.120;5.108;2023-02-11T09:21:01;62.20;;;25.83;;
12591;SDS011;6361;52.120;5.108;2023-02-11T09:23:31;62.83;;;27.92;;
12591;SDS011;6361;52.120;5.108;2023-02-11T09:25:58;59.03;;;27.02;;
12591;SDS011;6361;52.120;5.108;2023-02-11T09:28:29;56.97;;;26.30;;
12591;SDS011;6361;52.120;5.108;2023-02-11T09:30:54;55.65;;;25.65;;
12591;SDS011;6361;52.120;5.108;2023-02-11T09:33:19;56.72;;;25.00;;
12591;SDS011;6361;52.120;5.108;2023-02-11T09:35:45;59.75;;;26.52;;
12591;SDS011;6361;52.120;5.108;2023-02-11T09:38:10;59.67;;;26.92;;
12591;SDS011;6361;52.120;5.108;2023-02-11T09:40:35;55.30;;;26.77;;
12591;SDS011;6361;52.120;5.108;2023-02-11T09:43:10;58.03;;;25.77;;
12591;SDS011;6361;52.120;5.108;2023-02-11T09:45:41;54.70;;;25.17;;
12591;SDS011;6361;52.120;5.108;2023-02-11T09:48:14;47.40;;;24.85;;
12591;SDS011;6361;52.120;5.108;2023-02-11T09:50:43;55.88;;;26.40;;
12591;SDS011;6361;52.120;5.108;2023-02-11T09:53:24;56.10;;;26.73;;
12591;SDS011;6361;52.120;5.108;2023-02-11T09:55:57;62.90;;;28.23;;
12591;SDS011;6361;52.120;5.108;2023-02-11T09:58:33;62.15;;;27.95;;
12591;SDS011;6361;52.120;5.108;2023-02-11T10:01:07;51.00;;;25.42;;
12591;SDS011;6361;52.120;5.108;2023-02-11T10:09:28;51.75;;;25.25;;
12591;SDS011;6361;52.120;5.108;2023-02-11T10:25:11;50.28;;;24.67;;
12591;SDS011;6361;52.120;5.108;2023-02-11T10:27:42;45.22;;;24.10;;
12591;SDS011;6361;52.120;5.108;2023-02-11T10:35:23;45.45;;;23.75;;
12591;SDS011;6361;52.120;5.108;2023-02-11T10:37:51;46.80;;;22.63;;
12591;SDS011;6361;52.120;5.108;2023-02-11T10:40:18;47.88;;;23.23;;
12591;SDS011;6361;52.120;5.108;2023-02-11T10:42:49;49.08;;;23.25;;
12591;SDS011;6361;52.120;5.108;2023-02-11T10:45:18;47.78;;;23.20;;
12591;SDS011;6361;52.120;5.108;2023-02-11T10:47:47;45.75;;;22.80;;
12591;SDS011;6361;52.120;5.108;2023-02-11T10:50:24;41.22;;;20.95;;
12591;SDS011;6361;52.120;5.108;2023-02-11T10:52:51;41.92;;;21.38;;
12591;SDS011;6361;52.120;5.108;2023-02-11T10:55:21;42.53;;;21.70;;
12591;SDS011;6361;52.120;5.108;2023-02-11T10:57:55;43.30;;;21.00;;
12591;SDS011;6361;52.120;5.108;2023-02-11T11:00:30;40.05;;;21.90;;
12591;SDS011;6361;52.120;5.108;2023-02-11T11:02:58;37.75;;;19.42;;
12591;SDS011;6361;52.120;5.108;2023-02-11T11:05:44;33.20;;;18.77;;
12591;SDS011;6361;52.120;5.108;2023-02-11T11:08:19;34.33;;;17.05;;
12591;SDS011;6361;52.120;5.108;2023-02-11T11:11:00;32.38;;;17.33;;
12591;SDS011;6361;52.120;5.108;2023-02-11T11:13:32;30.52;;;16.58;;
12591;SDS011;6361;52.120;5.108;2023-02-11T11:18:44;28.70;;;15.43;;
12591;SDS011;6361;52.120;5.108;2023-02-11T11:21:17;32.95;;;16.25;;
12591;SDS011;6361;52.120;5.108;2023-02-11T11:23:54;30.23;;;14.55;;
12591;SDS011;6361;52.120;5.108;2023-02-11T11:26:24;30.40;;;15.48;;
12591;SDS011;6361;52.120;5.108;2023-02-11T11:28:56;30.17;;;13.65;;
12591;SDS011;6361;52.120;5.108;2023-02-11T11:31:29;23.30;;;13.48;;
12591;SDS011;6361;52.120;5.108;2023-02-11T11:33:57;20.67;;;11.95;;
12591;SDS011;6361;52.120;5.108;2023-02-11T11:36:30;24.70;;;12.35;;
12591;SDS011;6361;52.120;5.108;2023-02-11T11:38:59;23.35;;;12.32;;
12591;SDS011;6361;52.120;5.108;2023-02-11T11:41:28;33.10;;;18.50;;
12591;SDS011;6361;52.120;5.108;2023-02-11T11:49:47;22.83;;;11.55;;
12591;SDS011;6361;52.120;5.108;2023-02-11T11:54:59;19.92;;;11.55;;
12591;SDS011;6361;52.120;5.108;2023-02-11T11:57:29;18.70;;;11.02;;
12591;SDS011;6361;52.120;5.108;2023-02-11T11:59:56;20.85;;;10.27;;
12591;SDS011;6361;52.120;5.108;2023-02-11T12:05:25;14.98;;;10.07;;
12591;SDS011;6361;52.120;5.108;2023-02-11T12:08:25;15.90;;;10.07;;
12591;SDS011;6361;52.120;5.108;2023-02-11T12:11:18;18.17;;;10.27;;
12591;SDS011;6361;52.120;5.108;2023-02-11T12:21:35;20.40;;;10.00;;
12591;SDS011;6361;52.120;5.108;2023-02-11T12:27:01;16.05;;;9.93;;
12591;SDS011;6361;52.120;5.108;2023-02-11T12:32:25;15.23;;;9.38;;
12591;SDS011;6361;52.120;5.108;2023-02-11T12:41:27;13.85;;;9.32;;
12591;SDS011;6361;52.120;5.108;2023-02-11T12:44:28;19.48;;;10.00;;
12591;SDS011;6361;52.120;5.108;2023-02-11T12:47:07;13.95;;;10.20;;
12591;SDS011;6361;52.120;5.108;2023-02-11T12:55:44;18.35;;;10.18;;
12591;SDS011;6361;52.120;5.108;2023-02-11T12:58:12;16.83;;;9.60;;
12591;SDS011;6361;52.120;5.108;2023-02-11T13:00:48;15.52;;;9.88;;
12591;SDS011;6361;52.120;5.108;2023-02-11T13:06:24;17.98;;;9.52;;
12591;SDS011;6361;52.120;5.108;2023-02-11T13:08:54;14.00;;;8.82;;
12591;SDS011;6361;52.120;5.108;2023-02-11T13:11:28;16.95;;;9.52;;
12591;SDS011;6361;52.120;5.108;2023-02-11T13:14:07;11.68;;;8.70;;
12591;SDS011;6361;52.120;5.108;2023-02-11T13:16:42;15.05;;;8.90;;
12591;SDS011;6361;52.120;5.108;2023-02-11T13:21:40;14.63;;;8.85;;
12591;SDS011;6361;52.120;5.108;2023-02-11T13:24:18;14.90;;;8.68;;
12591;SDS011;6361;52.120;5.108;2023-02-11T13:26:55;14.80;;;8.85;;
12591;SDS011;6361;52.120;5.108;2023-02-11T13:32:26;16.27;;;9.45;;
12591;SDS011;6361;52.120;5.108;2023-02-11T13:35:25;13.93;;;8.15;;
12591;SDS011;6361;52.120;5.108;2023-02-11T13:37:59;14.65;;;8.07;;
12591;SDS011;6361;52.120;5.108;2023-02-11T13:40:56;13.55;;;7.82;;
12591;SDS011;6361;52.120;5.108;2023-02-11T13:43:24;15.15;;;8.00;;
12591;SDS011;6361;52.120;5.108;2023-02-11T13:45:53;11.60;;;7.68;;
12591;SDS011;6361;52.120;5.108;2023-02-11T13:48:26;13.38;;;7.65;;
12591;SDS011;6361;52.120;5.108;2023-02-11T13:50:59;12.33;;;7.30;;
12591;SDS011;6361;52.120;5.108;2023-02-11T13:56:35;15.23;;;7.63;;
12591;SDS011;6361;52.120;5.108;2023-02-11T13:59:03;12.43;;;7.55;;
12591;SDS011;6361;52.120;5.108;2023-02-11T14:04:36;12.38;;;7.05;;
12591;SDS011;6361;52.120;5.108;2023-02-11T14:21:17;11.30;;;6.80;;
12591;SDS011;6361;52.120;5.108;2023-02-11T14:29:40;11.68;;;7.07;;
12591;SDS011;6361;52.120;5.108;2023-02-11T14:35:04;12.05;;;7.13;;
12591;SDS011;6361;52.120;5.108;2023-02-11T14:40:46;13.88;;;6.80;;
12591;SDS011;6361;52.120;5.108;2023-02-11T14:43:20;13.32;;;6.72;;
12591;SDS011;6361;52.120;5.108;2023-02-11T14:45:57;10.55;;;6.88;;
12591;SDS011;6361;52.120;5.108;2023-02-11T14:48:31;16.55;;;8.00;;
12591;SDS011;6361;52.120;5.108;2023-02-11T14:51:11;11.02;;;6.35;;
12591;SDS011;6361;52.120;5.108;2023-02-11T14:53:40;13.55;;;7.15;;
12591;SDS011;6361;52.120;5.108;2023-02-11T14:58:45;10.32;;;6.28;;
12591;SDS011;6361;52.120;5.108;2023-02-11T15:04:01;18.88;;;7.28;;
12591;SDS011;6361;52.120;5.108;2023-02-11T15:06:32;15.80;;;7.43;;
12591;SDS011;6361;52.120;5.108;2023-02-11T15:09:05;12.55;;;7.28;;
12591;SDS011;6361;52.120;5.108;2023-02-11T15:11:38;14.00;;;7.50;;
12591;SDS011;6361;52.120;5.108;2023-02-11T15:14:09;13.65;;;7.97;;
12591;SDS011;6361;52.120;5.108;2023-02-11T15:16:39;12.82;;;7.50;;
12591;SDS011;6361;52.120;5.108;2023-02-11T15:19:06;13.77;;;7.63;;
12591;SDS011;6361;52.120;5.108;2023-02-11T15:21:32;13.35;;;7.10;;
12591;SDS011;6361;52.120;5.108;2023-02-11T15:26:44;16.33;;;7.93;;
12591;SDS011;6361;52.120;5.108;2023-02-11T15:29:22;14.02;;;7.22;;
12591;SDS011;6361;52.120;5.108;2023-02-11T15:32:01;13.55;;;7.15;;
12591;SDS011;6361;52.120;5.108;2023-02-11T15:34:31;13.07;;;7.30;;
12591;SDS011;6361;52.120;5.108;2023-02-11T15:36:56;17.20;;;8.05;;
12591;SDS011;6361;52.120;5.108;2023-02-11T15:45:06;15.23;;;8.10;;
12591;SDS011;6361;52.120;5.108;2023-02-11T15:47:32;13.98;;;8.13;;
12591;SDS011;6361;52.120;5.108;2023-02-11T15:49:57;16.20;;;8.48;;
12591;SDS011;6361;52.120;5.108;2023-02-11T15:52:23;14.57;;;7.82;;
12591;SDS011;6361;52.120;5.108;2023-02-11T15:54:51;14.70;;;8.60;;
12591;SDS011;6361;52.120;5.108;2023-02-11T15:57:18;15.05;;;8.25;;
12591;SDS011;6361;52.120;5.108;2023-02-11T15:59:45;21.40;;;8.88;;
12591;SDS011;6361;52.120;5.108;2023-02-11T16:02:19;14.85;;;8.95;;
12591;SDS011;6361;52.120;5.108;2023-02-11T16:04:56;15.73;;;8.63;;
12591;SDS011;6361;52.120;5.108;2023-02-11T16:07:37;15.32;;;8.50;;
12591;SDS011;6361;52.120;5.108;2023-02-11T16:10:30;20.55;;;10.48;;
12591;SDS011;6361;52.120;5.108;2023-02-11T16:15:40;16.58;;;8.38;;
12591;SDS011;6361;52.120;5.108;2023-02-11T16:18:26;15.18;;;8.13;;
12591;SDS011;6361;52.120;5.108;2023-02-11T16:20:54;14.07;;;8.07;;
12591;SDS011;6361;52.120;5.108;2023-02-11T16:23:28;12.57;;;8.25;;
12591;SDS011;6361;52.120;5.108;2023-02-11T16:26:00;15.63;;;8.38;;
12591;SDS011;6361;52.120;5.108;2023-02-11T16:28:29;16.90;;;8.48;;
12591;SDS011;6361;52.120;5.108;2023-02-11T16:30:55;18.80;;;8.13;;
12591;SDS011;6361;52.120;5.108;2023-02-11T16:33:21;17.38;;;8.27;;
12591;SDS011;6361;52.120;5.108;2023-02-11T16:35:46;14.95;;;7.53;;
12591;SDS011;6361;52.120;5.108;2023-02-11T16:38:13;14.40;;;7.43;;
12591;SDS011;6361;52.120;5.108;2023-02-11T16:40:39;15.45;;;8.27;;
12591;SDS011;6361;52.120;5.108;2023-02-11T16:43:04;17.88;;;8.45;;
12591;SDS011;6361;52.120;5.108;2023-02-11T16:45:30;15.60;;;8.10;;
12591;SDS011;6361;52.120;5.108;2023-02-11T16:47:55;18.85;;;8.50;;
12591;SDS011;6361;52.120;5.108;2023-02-11T16:50:22;14.73;;;7.68;;
12591;SDS011;6361;52.120;5.108;2023-02-11T16:52:48;12.88;;;7.78;;
12591;SDS011;6361;52.120;5.108;2023-02-11T16:55:16;16.05;;;8.27;;
12591;SDS011;6361;52.120;5.108;2023-02-11T16:57:42;14.63;;;8.13;;
12591;SDS011;6361;52.120;5.108;2023-02-11T17:00:07;19.83;;;8.00;;
12591;SDS011;6361;52.120;5.108;2023-02-11T17:02:40;14.80;;;7.97;;
12591;SDS011;6361;52.120;5.108;2023-02-11T17:05:06;13.25;;;7.93;;
12591;SDS011;6361;52.120;5.108;2023-02-11T17:07:32;18.40;;;8.90;;
12591;SDS011;6361;52.120;5.108;2023-02-11T17:09:58;17.80;;;8.70;;
12591;SDS011;6361;52.120;5.108;2023-02-11T17:12:23;18.65;;;8.70;;
12591;SDS011;6361;52.120;5.108;2023-02-11T17:14:49;13.40;;;7.95;;
12591;SDS011;6361;52.120;5.108;2023-02-11T17:17:15;15.07;;;8.32;;
12591;SDS011;6361;52.120;5.108;2023-02-11T17:19:41;16.33;;;7.88;;
12591;SDS011;6361;52.120;5.108;2023-02-11T17:22:07;14.50;;;8.57;;
12591;SDS011;6361;52.120;5.108;2023-02-11T17:24:32;13.73;;;8.80;;
12591;SDS011;6361;52.120;5.108;2023-02-11T17:26:57;14.52;;;8.48;;
12591;SDS011;6361;52.120;5.108;2023-02-11T17:29:23;14.63;;;8.07;;
12591;SDS011;6361;52.120;5.108;2023-02-11T17:31:49;16.45;;;8.30;;
12591;SDS011;6361;52.120;5.108;2023-02-11T17:34:16;16.63;;;8.77;;